sensor_id;sensor_type;location;lat;lon;timestamp;P1;durP1;ratioP1;P2;durP2;ratioP2
7460;SDS011;6757;52.258;12.840;2023-07-13T00:01:49;5.43;;;2.63;;
7460;SDS011;6757;52.258;12.840;2023-07-13T00:04:18;3.83;;;2.15;;
7460;SDS011;6757;52.258;12.840;2023-07-13T00:06:47;4.43;;;2.33;;
7460;SDS011;6757;52.258;12.840;2023-07-13T00:09:16;5.45;;;2.10;;
7460;SDS011;6757;52.258;12.840;2023-07-13T00:11:44;5.00;;;2.30;;
7460;SDS011;6757;52.258;12.840;2023-07-13T00:14:17;3.50;;;2.42;;
7460;SDS011;6757;52.258;12.840;2023-07-13T00:16:44;6.05;;;2.53;;
7460;SDS011;6757;52.258;12.840;2023-07-13T00:19:12;4.07;;;2.15;;
7460;SDS011;6757;52.258;12.840;2023-07-13T00:21:41;3.97;;;2.35;;
7460;SDS011;6757;52.258;12.840;2023-07-13T00:24:10;4.65;;;2.38;;
7460;SDS011;6757;52.258;12.840;2023-07-13T00:26:40;4.10;;;2.42;;
7460;SDS011;6757;52.258;12.840;2023-07-13T00:29:10;5.45;;;2.65;;
7460;SDS011;6757;52.258;12.840;2023-07-13T00:31:38;4.95;;;2.60;;
7460;SDS011;6757;52.258;12.840;2023-07-13T00:34:05;4.95;;;2.40;;
7460;SDS011;6757;52.258;12.840;2023-07-13T00:36:32;5.90;;;2.42;;
7460;SDS011;6757;52.258;12.840;2023-07-13T00:39:00;4.95;;;2.70;;
7460;SDS011;6757;52.258;12.840;2023-07-13T00:41:29;4.13;;;2.30;;
7460;SDS011;6757;52.258;12.840;2023-07-13T00:43:56;5.30;;;2.70;;
7460;SDS011;6757;52.258;12.840;2023-07-13T00:46:24;5.85;;;2.33;;
7460;SDS011;6757;52.258;12.840;2023-07-13T00:48:54;3.92;;;2.50;;
7460;SDS011;6757;52.258;12.840;2023-07-13T00:51:30;5.07;;;2.42;;
7460;SDS011;6757;52.258;12.840;2023-07-13T00:54:05;4.22;;;2.40;;
7460;SDS011;6757;52.258;12.840;2023-07-13T00:56:36;4.72;;;2.50;;
7460;SDS011;6757;52.258;12.840;2023-07-13T00:59:05;4.78;;;2.65;;
7460;SDS011;6757;52.258;12.840;2023-07-13T01:01:33;4.43;;;2.70;;
7460;SDS011;6757;52.258;12.840;2023-07-13T01:04:02;6.30;;;2.72;;
7460;SDS011;6757;52.258;12.840;2023-07-13T01:06:32;5.53;;;2.88;;
7460;SDS011;6757;52.258;12.840;2023-07-13T01:09:00;5.82;;;2.60;;
7460;SDS011;6757;52.258;12.840;2023-07-13T01:11:29;7.88;;;2.75;;
7460;SDS011;6757;52.258;12.840;2023-07-13T01:13:56;6.72;;;2.83;;
7460;SDS011;6757;52.258;12.840;2023-07-13T01:16:24;6.00;;;2.72;;
7460;SDS011;6757;52.258;12.840;2023-07-13T01:18:54;2.83;;;2.20;;
7460;SDS011;6757;52.258;12.840;2023-07-13T01:21:24;4.93;;;2.67;;
7460;SDS011;6757;52.258;12.840;2023-07-13T01:23:52;5.72;;;2.60;;
7460;SDS011;6757;52.258;12.840;2023-07-13T01:26:19;4.03;;;2.35;;
7460;SDS011;6757;52.258;12.840;2023-07-13T01:28:46;7.35;;;3.28;;
7460;SDS011;6757;52.258;12.840;2023-07-13T01:31:13;7.45;;;3.05;;
7460;SDS011;6757;52.258;12.840;2023-07-13T01:33:40;6.40;;;3.05;;
7460;SDS011;6757;52.258;12.840;2023-07-13T01:36:08;5.45;;;2.97;;
7460;SDS011;6757;52.258;12.840;2023-07-13T01:38:38;6.53;;;2.80;;
7460;SDS011;6757;52.258;12.840;2023-07-13T01:41:05;6.30;;;2.90;;
7460;SDS011;6757;52.258;12.840;2023-07-13T01:43:32;4.72;;;2.70;;
7460;SDS011;6757;52.258;12.840;2023-07-13T01:45:59;6.07;;;2.78;;
7460;SDS011;6757;52.258;12.840;2023-07-13T01:48:26;7.30;;;3.00;;
7460;SDS011;6757;52.258;12.840;2023-07-13T01:50:53;5.20;;;2.70;;
7460;SDS011;6757;52.258;12.840;2023-07-13T01:53:20;5.40;;;2.45;;
7460;SDS011;6757;52.258;12.840;2023-07-13T01:55:48;4.65;;;2.65;;
7460;SDS011;6757;52.258;12.840;2023-07-13T01:58:15;5.30;;;2.75;;
7460;SDS011;6757;52.258;12.840;2023-07-13T02:00:41;6.97;;;3.38;;
7460;SDS011;6757;52.258;12.840;2023-07-13T02:03:08;5.25;;;2.50;;
7460;SDS011;6757;52.258;12.840;2023-07-13T02:05:36;5.32;;;2.50;;
7460;SDS011;6757;52.258;12.840;2023-07-13T02:08:03;5.43;;;3.10;;
7460;SDS011;6757;52.258;12.840;2023-07-13T02:10:30;6.88;;;2.70;;
7460;SDS011;6757;52.258;12.840;2023-07-13T02:12:58;7.40;;;2.80;;
7460;SDS011;6757;52.258;12.840;2023-07-13T02:15:25;5.13;;;2.35;;
7460;SDS011;6757;52.258;12.840;2023-07-13T02:17:52;5.63;;;2.88;;
7460;SDS011;6757;52.258;12.840;2023-07-13T02:20:19;4.75;;;2.80;;
7460;SDS011;6757;52.258;12.840;2023-07-13T02:22:46;6.97;;;2.80;;
7460;SDS011;6757;52.258;12.840;2023-07-13T02:25:13;6.22;;;2.70;;
7460;SDS011;6757;52.258;12.840;2023-07-13T02:27:40;3.95;;;2.47;;
7460;SDS011;6757;52.258;12.840;2023-07-13T02:30:09;6.15;;;2.60;;
7460;SDS011;6757;52.258;12.840;2023-07-13T02:32:37;6.40;;;2.85;;
7460;SDS011;6757;52.258;12.840;2023-07-13T02:35:04;7.82;;;2.70;;
7460;SDS011;6757;52.258;12.840;2023-07-13T02:37:32;6.65;;;3.00;;
7460;SDS011;6757;52.258;12.840;2023-07-13T02:39:59;4.72;;;2.45;;
7460;SDS011;6757;52.258;12.840;2023-07-13T02:42:25;4.72;;;2.50;;
7460;SDS011;6757;52.258;12.840;2023-07-13T02:44:52;6.13;;;2.90;;
7460;SDS011;6757;52.258;12.840;2023-07-13T02:47:21;6.68;;;2.55;;
7460;SDS011;6757;52.258;12.840;2023-07-13T02:49:48;6.68;;;2.75;;
7460;SDS011;6757;52.258;12.840;2023-07-13T02:52:15;4.68;;;2.53;;
7460;SDS011;6757;52.258;12.840;2023-07-13T02:54:42;6.00;;;2.63;;
7460;SDS011;6757;52.258;12.840;2023-07-13T02:57:09;5.03;;;2.58;;
7460;SDS011;6757;52.258;12.840;2023-07-13T02:59:36;6.53;;;2.90;;
7460;SDS011;6757;52.258;12.840;2023-07-13T03:02:03;8.00;;;3.00;;
7460;SDS011;6757;52.258;12.840;2023-07-13T03:04:31;4.28;;;2.50;;
7460;SDS011;6757;52.258;12.840;2023-07-13T03:06:58;6.15;;;2.60;;
7460;SDS011;6757;52.258;12.840;2023-07-13T03:09:25;5.60;;;2.88;;
7460;SDS011;6757;52.258;12.840;2023-07-13T03:11:53;7.70;;;3.50;;
7460;SDS011;6757;52.258;12.840;2023-07-13T03:14:21;6.53;;;2.88;;
7460;SDS011;6757;52.258;12.840;2023-07-13T03:16:49;5.68;;;2.78;;
7460;SDS011;6757;52.258;12.840;2023-07-13T03:19:17;5.32;;;2.70;;
7460;SDS011;6757;52.258;12.840;2023-07-13T03:21:45;4.30;;;2.67;;
7460;SDS011;6757;52.258;12.840;2023-07-13T03:24:12;5.10;;;2.80;;
7460;SDS011;6757;52.258;12.840;2023-07-13T03:26:40;3.42;;;2.50;;
7460;SDS011;6757;52.258;12.840;2023-07-13T03:29:07;7.03;;;2.60;;
7460;SDS011;6757;52.258;12.840;2023-07-13T03:31:34;4.72;;;2.72;;
7460;SDS011;6757;52.258;12.840;2023-07-13T03:34:02;7.47;;;2.90;;
7460;SDS011;6757;52.258;12.840;2023-07-13T03:36:30;5.60;;;2.45;;
7460;SDS011;6757;52.258;12.840;2023-07-13T03:39:01;5.43;;;2.55;;
7460;SDS011;6757;52.258;12.840;2023-07-13T03:41:29;5.32;;;2.42;;
7460;SDS011;6757;52.258;12.840;2023-07-13T03:43:56;4.28;;;2.53;;
7460;SDS011;6757;52.258;12.840;2023-07-13T03:46:23;5.93;;;2.58;;
7460;SDS011;6757;52.258;12.840;2023-07-13T03:48:50;5.10;;;2.40;;
7460;SDS011;6757;52.258;12.840;2023-07-13T03:51:18;6.60;;;2.75;;
7460;SDS011;6757;52.258;12.840;2023-07-13T03:53:46;6.72;;;2.50;;
7460;SDS011;6757;52.258;12.840;2023-07-13T03:56:15;6.80;;;2.35;;
7460;SDS011;6757;52.258;12.840;2023-07-13T03:58:45;4.22;;;2.35;;
7460;SDS011;6757;52.258;12.840;2023-07-13T04:01:14;5.97;;;2.40;;
7460;SDS011;6757;52.258;12.840;2023-07-13T04:03:42;4.57;;;2.47;;
7460;SDS011;6757;52.258;12.840;2023-07-13T04:06:13;5.82;;;2.58;;
7460;SDS011;6757;52.258;12.840;2023-07-13T04:08:46;5.13;;;2.75;;
7460;SDS011;6757;52.258;12.840;2023-07-13T04:11:17;5.55;;;2.70;;
7460;SDS011;6757;52.258;12.840;2023-07-13T04:13:44;3.75;;;2.22;;
7460;SDS011;6757;52.258;12.840;2023-07-13T04:16:11;6.70;;;2.45;;
7460;SDS011;6757;52.258;12.840;2023-07-13T04:18:39;4.85;;;2.40;;
7460;SDS011;6757;52.258;12.840;2023-07-13T04:21:06;3.83;;;2.35;;
7460;SDS011;6757;52.258;12.840;2023-07-13T04:23:34;6.82;;;2.78;;
7460;SDS011;6757;52.258;12.840;2023-07-13T04:26:02;4.32;;;2.22;;
7460;SDS011;6757;52.258;12.840;2023-07-13T04:28:31;5.43;;;2.45;;
7460;SDS011;6757;52.258;12.840;2023-07-13T04:30:59;4.38;;;2.40;;
7460;SDS011;6757;52.258;12.840;2023-07-13T04:33:26;5.35;;;2.30;;
7460;SDS011;6757;52.258;12.840;2023-07-13T04:35:54;7.28;;;2.08;;
7460;SDS011;6757;52.258;12.840;2023-07-13T04:38:22;4.65;;;2.42;;
7460;SDS011;6757;52.258;12.840;2023-07-13T04:40:52;6.63;;;2.47;;
7460;SDS011;6757;52.258;12.840;2023-07-13T04:43:21;7.75;;;3.10;;
7460;SDS011;6757;52.258;12.840;2023-07-13T04:45:49;6.90;;;2.60;;
7460;SDS011;6757;52.258;12.840;2023-07-13T04:48:17;5.30;;;2.63;;
7460;SDS011;6757;52.258;12.840;2023-07-13T04:50:44;4.70;;;2.40;;
7460;SDS011;6757;52.258;12.840;2023-07-13T04:53:12;4.28;;;2.60;;
7460;SDS011;6757;52.258;12.840;2023-07-13T04:55:39;8.05;;;2.85;;
7460;SDS011;6757;52.258;12.840;2023-07-13T04:58:06;5.35;;;2.60;;
7460;SDS011;6757;52.258;12.840;2023-07-13T05:00:33;4.65;;;2.45;;
7460;SDS011;6757;52.258;12.840;2023-07-13T05:03:02;4.65;;;2.63;;
7460;SDS011;6757;52.258;12.840;2023-07-13T05:05:29;7.47;;;2.70;;
7460;SDS011;6757;52.258;12.840;2023-07-13T05:07:56;6.68;;;2.80;;
7460;SDS011;6757;52.258;12.840;2023-07-13T05:10:23;6.93;;;2.60;;
7460;SDS011;6757;52.258;12.840;2023-07-13T05:12:50;6.68;;;2.90;;
7460;SDS011;6757;52.258;12.840;2023-07-13T05:15:18;5.72;;;2.50;;
7460;SDS011;6757;52.258;12.840;2023-07-13T05:17:47;6.03;;;2.70;;
7460;SDS011;6757;52.258;12.840;2023-07-13T05:20:16;4.57;;;2.47;;
7460;SDS011;6757;52.258;12.840;2023-07-13T05:22:44;5.22;;;2.80;;
7460;SDS011;6757;52.258;12.840;2023-07-13T05:25:12;4.55;;;2.67;;
7460;SDS011;6757;52.258;12.840;2023-07-13T05:27:40;4.90;;;2.47;;
7460;SDS011;6757;52.258;12.840;2023-07-13T05:30:07;4.75;;;2.75;;
7460;SDS011;6757;52.258;12.840;2023-07-13T05:32:37;7.45;;;2.85;;
7460;SDS011;6757;52.258;12.840;2023-07-13T05:35:04;6.45;;;3.00;;
7460;SDS011;6757;52.258;12.840;2023-07-13T05:37:33;6.88;;;2.85;;
7460;SDS011;6757;52.258;12.840;2023-07-13T05:40:01;5.93;;;2.92;;
7460;SDS011;6757;52.258;12.840;2023-07-13T05:42:28;5.13;;;2.85;;
7460;SDS011;6757;52.258;12.840;2023-07-13T05:44:56;5.30;;;2.78;;
7460;SDS011;6757;52.258;12.840;2023-07-13T05:47:23;5.07;;;2.67;;
7460;SDS011;6757;52.258;12.840;2023-07-13T05:49:50;5.28;;;2.67;;
7460;SDS011;6757;52.258;12.840;2023-07-13T05:52:16;5.75;;;2.92;;
7460;SDS011;6757;52.258;12.840;2023-07-13T05:54:45;4.32;;;2.40;;
7460;SDS011;6757;52.258;12.840;2023-07-13T05:57:12;7.63;;;3.20;;
7460;SDS011;6757;52.258;12.840;2023-07-13T05:59:38;6.57;;;2.65;;
7460;SDS011;6757;52.258;12.840;2023-07-13T06:02:05;4.05;;;2.45;;
7460;SDS011;6757;52.258;12.840;2023-07-13T06:04:35;7.78;;;2.83;;
7460;SDS011;6757;52.258;12.840;2023-07-13T06:07:02;5.72;;;2.63;;
7460;SDS011;6757;52.258;12.840;2023-07-13T06:09:30;5.68;;;2.97;;
7460;SDS011;6757;52.258;12.840;2023-07-13T06:11:58;6.15;;;2.90;;
7460;SDS011;6757;52.258;12.840;2023-07-13T06:14:25;7.05;;;2.80;;
7460;SDS011;6757;52.258;12.840;2023-07-13T06:16:52;6.35;;;3.05;;
7460;SDS011;6757;52.258;12.840;2023-07-13T06:19:19;5.60;;;3.00;;
7460;SDS011;6757;52.258;12.840;2023-07-13T06:21:46;5.80;;;2.70;;
7460;SDS011;6757;52.258;12.840;2023-07-13T06:24:13;5.78;;;2.83;;
7460;SDS011;6757;52.258;12.840;2023-07-13T06:26:40;5.60;;;2.83;;
7460;SDS011;6757;52.258;12.840;2023-07-13T06:29:08;6.40;;;2.80;;
7460;SDS011;6757;52.258;12.840;2023-07-13T06:31:35;5.35;;;2.65;;
7460;SDS011;6757;52.258;12.840;2023-07-13T06:34:02;6.38;;;3.05;;
7460;SDS011;6757;52.258;12.840;2023-07-13T06:36:28;4.78;;;2.67;;
7460;SDS011;6757;52.258;12.840;2023-07-13T06:38:55;5.03;;;2.65;;
7460;SDS011;6757;52.258;12.840;2023-07-13T06:41:22;4.78;;;2.80;;
7460;SDS011;6757;52.258;12.840;2023-07-13T06:43:51;7.00;;;2.97;;
7460;SDS011;6757;52.258;12.840;2023-07-13T06:46:19;5.95;;;2.70;;
7460;SDS011;6757;52.258;12.840;2023-07-13T06:48:47;5.75;;;2.40;;
7460;SDS011;6757;52.258;12.840;2023-07-13T06:51:14;4.20;;;2.50;;
7460;SDS011;6757;52.258;12.840;2023-07-13T06:53:41;6.47;;;2.80;;
7460;SDS011;6757;52.258;12.840;2023-07-13T06:56:08;3.58;;;2.30;;
7460;SDS011;6757;52.258;12.840;2023-07-13T06:58:36;3.15;;;2.25;;
7460;SDS011;6757;52.258;12.840;2023-07-13T07:01:03;6.03;;;2.78;;
7460;SDS011;6757;52.258;12.840;2023-07-13T07:03:32;5.65;;;2.50;;
7460;SDS011;6757;52.258;12.840;2023-07-13T07:06:03;6.30;;;2.75;;
7460;SDS011;6757;52.258;12.840;2023-07-13T07:08:40;3.13;;;2.25;;
7460;SDS011;6757;52.258;12.840;2023-07-13T07:11:08;5.57;;;2.30;;
7460;SDS011;6757;52.258;12.840;2023-07-13T07:13:38;5.50;;;2.80;;
7460;SDS011;6757;52.258;12.840;2023-07-13T07:16:05;3.83;;;2.28;;
7460;SDS011;6757;52.258;12.840;2023-07-13T07:18:35;4.22;;;2.45;;
7460;SDS011;6757;52.258;12.840;2023-07-13T07:21:02;4.43;;;2.30;;
7460;SDS011;6757;52.258;12.840;2023-07-13T07:23:29;3.38;;;2.20;;
7460;SDS011;6757;52.258;12.840;2023-07-13T07:25:56;7.28;;;2.25;;
7460;SDS011;6757;52.258;12.840;2023-07-13T07:28:23;5.28;;;2.17;;
7460;SDS011;6757;52.258;12.840;2023-07-13T07:30:52;5.93;;;2.60;;
7460;SDS011;6757;52.258;12.840;2023-07-13T07:33:20;6.43;;;2.60;;
7460;SDS011;6757;52.258;12.840;2023-07-13T07:35:48;6.70;;;2.80;;
7460;SDS011;6757;52.258;12.840;2023-07-13T07:38:16;8.52;;;2.40;;
7460;SDS011;6757;52.258;12.840;2023-07-13T07:40:43;3.90;;;2.60;;
7460;SDS011;6757;52.258;12.840;2023-07-13T07:43:10;4.80;;;2.25;;
7460;SDS011;6757;52.258;12.840;2023-07-13T07:45:39;6.63;;;3.10;;
7460;SDS011;6757;52.258;12.840;2023-07-13T07:48:07;4.90;;;2.45;;
7460;SDS011;6757;52.258;12.840;2023-07-13T07:50:34;6.43;;;2.50;;
7460;SDS011;6757;52.258;12.840;2023-07-13T07:53:03;4.30;;;2.40;;
7460;SDS011;6757;52.258;12.840;2023-07-13T07:55:32;5.93;;;2.45;;
7460;SDS011;6757;52.258;12.840;2023-07-13T07:58:00;5.60;;;2.65;;
7460;SDS011;6757;52.258;12.840;2023-07-13T08:00:27;6.95;;;2.80;;
7460;SDS011;6757;52.258;12.840;2023-07-13T08:02:55;5.22;;;2.28;;
7460;SDS011;6757;52.258;12.840;2023-07-13T08:05:22;3.60;;;2.22;;
7460;SDS011;6757;52.258;12.840;2023-07-13T08:07:49;5.32;;;2.72;;
7460;SDS011;6757;52.258;12.840;2023-07-13T08:10:17;4.43;;;2.40;;
7460;SDS011;6757;52.258;12.840;2023-07-13T08:12:44;4.82;;;2.58;;
7460;SDS011;6757;52.258;12.840;2023-07-13T08:15:12;4.88;;;2.38;;
7460;SDS011;6757;52.258;12.840;2023-07-13T08:17:41;4.32;;;2.40;;
7460;SDS011;6757;52.258;12.840;2023-07-13T08:20:09;5.25;;;2.40;;
7460;SDS011;6757;52.258;12.840;2023-07-13T08:22:36;4.03;;;2.58;;
7460;SDS011;6757;52.258;12.840;2023-07-13T08:25:03;4.22;;;2.13;;
7460;SDS011;6757;52.258;12.840;2023-07-13T08:27:32;7.63;;;2.40;;
7460;SDS011;6757;52.258;12.840;2023-07-13T08:30:00;5.20;;;2.67;;
7460;SDS011;6757;52.258;12.840;2023-07-13T08:32:26;2.83;;;2.05;;
7460;SDS011;6757;52.258;12.840;2023-07-13T08:34:53;1.92;;;1.80;;
7460;SDS011;6757;52.258;12.840;2023-07-13T08:37:20;4.35;;;2.70;;
7460;SDS011;6757;52.258;12.840;2023-07-13T08:39:47;5.00;;;2.30;;
7460;SDS011;6757;52.258;12.840;2023-07-13T08:42:14;3.28;;;2.33;;
7460;SDS011;6757;52.258;12.840;2023-07-13T08:45:02;3.92;;;2.45;;
7460;SDS011;6757;52.258;12.840;2023-07-13T08:47:38;4.45;;;2.30;;
7460;SDS011;6757;52.258;12.840;2023-07-13T08:50:11;5.05;;;2.53;;
7460;SDS011;6757;52.258;12.840;2023-07-13T08:52:41;4.15;;;2.50;;
7460;SDS011;6757;52.258;12.840;2023-07-13T08:55:11;3.72;;;2.33;;
7460;SDS011;6757;52.258;12.840;2023-07-13T08:57:42;3.63;;;2.20;;
7460;SDS011;6757;52.258;12.840;2023-07-13T09:00:14;5.68;;;2.42;;
7460;SDS011;6757;52.258;12.840;2023-07-13T09:02:42;5.15;;;2.20;;
7460;SDS011;6757;52.258;12.840;2023-07-13T09:05:13;8.70;;;2.85;;
7460;SDS011;6757;52.258;12.840;2023-07-13T09:07:48;6.20;;;2.67;;
7460;SDS011;6757;52.258;12.840;2023-07-13T09:10:31;5.90;;;2.65;;
7460;SDS011;6757;52.258;12.840;2023-07-13T09:13:07;8.45;;;2.70;;
7460;SDS011;6757;52.258;12.840;2023-07-13T09:15:49;4.43;;;2.50;;
7460;SDS011;6757;52.258;12.840;2023-07-13T09:18:19;5.38;;;2.70;;
7460;SDS011;6757;52.258;12.840;2023-07-13T09:20:53;4.03;;;2.53;;
7460;SDS011;6757;52.258;12.840;2023-07-13T09:23:26;6.35;;;2.70;;
7460;SDS011;6757;52.258;12.840;2023-07-13T09:25:59;4.95;;;2.55;;
7460;SDS011;6757;52.258;12.840;2023-07-13T09:28:33;5.78;;;2.70;;
7460;SDS011;6757;52.258;12.840;2023-07-13T09:31:07;4.82;;;2.58;;
7460;SDS011;6757;52.258;12.840;2023-07-13T09:33:41;7.57;;;2.90;;
7460;SDS011;6757;52.258;12.840;2023-07-13T09:36:16;4.88;;;2.90;;
7460;SDS011;6757;52.258;12.840;2023-07-13T09:38:46;6.63;;;2.92;;
7460;SDS011;6757;52.258;12.840;2023-07-13T09:41:19;6.22;;;2.55;;
7460;SDS011;6757;52.258;12.840;2023-07-13T09:44:09;9.32;;;3.03;;
7460;SDS011;6757;52.258;12.840;2023-07-13T09:46:39;9.65;;;3.38;;
7460;SDS011;6757;52.258;12.840;2023-07-13T09:49:11;9.15;;;3.05;;
7460;SDS011;6757;52.258;12.840;2023-07-13T09:51:40;7.45;;;3.55;;
7460;SDS011;6757;52.258;12.840;2023-07-13T09:54:20;7.15;;;3.10;;
7460;SDS011;6757;52.258;12.840;2023-07-13T09:56:53;5.97;;;2.95;;
7460;SDS011;6757;52.258;12.840;2023-07-13T09:59:22;7.18;;;2.90;;
7460;SDS011;6757;52.258;12.840;2023-07-13T10:01:57;8.55;;;3.47;;
7460;SDS011;6757;52.258;12.840;2023-07-13T10:04:27;6.40;;;3.00;;
7460;SDS011;6757;52.258;12.840;2023-07-13T10:07:04;9.60;;;3.40;;
7460;SDS011;6757;52.258;12.840;2023-07-13T10:09:33;7.03;;;2.97;;
7460;SDS011;6757;52.258;12.840;2023-07-13T10:11:59;5.35;;;2.80;;
7460;SDS011;6757;52.258;12.840;2023-07-13T10:14:26;7.75;;;2.97;;
7460;SDS011;6757;52.258;12.840;2023-07-13T10:16:58;7.05;;;3.13;;
7460;SDS011;6757;52.258;12.840;2023-07-13T10:19:29;6.03;;;3.00;;
7460;SDS011;6757;52.258;12.840;2023-07-13T10:21:59;6.60;;;2.90;;
7460;SDS011;6757;52.258;12.840;2023-07-13T10:24:30;6.65;;;3.38;;
7460;SDS011;6757;52.258;12.840;2023-07-13T10:27:01;5.70;;;2.95;;
7460;SDS011;6757;52.258;12.840;2023-07-13T10:29:37;5.95;;;2.85;;
7460;SDS011;6757;52.258;12.840;2023-07-13T10:32:11;7.82;;;3.05;;
7460;SDS011;6757;52.258;12.840;2023-07-13T10:34:39;6.70;;;3.25;;
7460;SDS011;6757;52.258;12.840;2023-07-13T10:37:11;6.00;;;3.05;;
7460;SDS011;6757;52.258;12.840;2023-07-13T10:39:46;8.05;;;2.97;;
7460;SDS011;6757;52.258;12.840;2023-07-13T10:42:15;5.97;;;2.70;;
7460;SDS011;6757;52.258;12.840;2023-07-13T10:44:53;7.47;;;2.70;;
7460;SDS011;6757;52.258;12.840;2023-07-13T10:47:21;4.50;;;2.75;;
7460;SDS011;6757;52.258;12.840;2023-07-13T10:49:50;4.80;;;2.40;;
7460;SDS011;6757;52.258;12.840;2023-07-13T10:52:40;5.18;;;2.67;;
7460;SDS011;6757;52.258;12.840;2023-07-13T10:58:01;4.25;;;2.35;;
7460;SDS011;6757;52.258;12.840;2023-07-13T11:00:30;5.60;;;2.40;;
7460;SDS011;6757;52.258;12.840;2023-07-13T11:03:00;5.38;;;2.75;;
7460;SDS011;6757;52.258;12.840;2023-07-13T11:05:30;7.45;;;2.95;;
7460;SDS011;6757;52.258;12.840;2023-07-13T11:08:03;4.50;;;2.20;;
7460;SDS011;6757;52.258;12.840;2023-07-13T11:10:47;5.80;;;2.28;;
7460;SDS011;6757;52.258;12.840;2023-07-13T11:30:32;2.08;;;1.90;;
7460;SDS011;6757;52.258;12.840;2023-07-13T11:33:10;3.97;;;2.05;;
7460;SDS011;6757;52.258;12.840;2023-07-13T11:35:44;5.70;;;2.13;;
7460;SDS011;6757;52.258;12.840;2023-07-13T11:38:20;2.50;;;1.88;;
7460;SDS011;6757;52.258;12.840;2023-07-13T11:40:51;3.08;;;2.03;;
7460;SDS011;6757;52.258;12.840;2023-07-13T11:43:21;4.10;;;2.13;;
7460;SDS011;6757;52.258;12.840;2023-07-13T11:45:49;3.65;;;2.15;;
7460;SDS011;6757;52.258;12.840;2023-07-13T11:48:18;3.05;;;2.00;;
7460;SDS011;6757;52.258;12.840;2023-07-13T11:53:25;3.50;;;1.90;;
7460;SDS011;6757;52.258;12.840;2023-07-13T11:58:23;2.22;;;1.77;;
7460;SDS011;6757;52.258;12.840;2023-07-13T12:00:53;2.65;;;2.03;;
7460;SDS011;6757;52.258;12.840;2023-07-13T12:03:22;4.07;;;1.70;;
7460;SDS011;6757;52.258;12.840;2023-07-13T12:05:58;2.10;;;1.80;;
7460;SDS011;6757;52.258;12.840;2023-07-13T12:08:28;2.50;;;1.90;;
7460;SDS011;6757;52.258;12.840;2023-07-13T12:10:59;3.58;;;1.70;;
7460;SDS011;6757;52.258;12.840;2023-07-13T12:13:34;5.75;;;2.00;;
7460;SDS011;6757;52.258;12.840;2023-07-13T12:16:10;3.22;;;1.55;;
7460;SDS011;6757;52.258;12.840;2023-07-13T12:18:42;4.65;;;1.80;;
7460;SDS011;6757;52.258;12.840;2023-07-13T12:21:14;2.83;;;1.60;;
7460;SDS011;6757;52.258;12.840;2023-07-13T12:23:47;3.33;;;1.95;;
7460;SDS011;6757;52.258;12.840;2023-07-13T12:26:15;5.00;;;1.90;;
7460;SDS011;6757;52.258;12.840;2023-07-13T12:28:45;3.22;;;1.50;;
7460;SDS011;6757;52.258;12.840;2023-07-13T12:31:31;2.10;;;1.60;;
7460;SDS011;6757;52.258;12.840;2023-07-13T12:34:09;2.22;;;1.45;;
7460;SDS011;6757;52.258;12.840;2023-07-13T12:36:38;4.10;;;1.80;;
7460;SDS011;6757;52.258;12.840;2023-07-13T12:39:15;2.55;;;1.92;;
7460;SDS011;6757;52.258;12.840;2023-07-13T12:41:46;2.08;;;1.88;;
7460;SDS011;6757;52.258;12.840;2023-07-13T12:44:15;5.10;;;1.83;;
7460;SDS011;6757;52.258;12.840;2023-07-13T12:46:52;4.18;;;1.88;;
7460;SDS011;6757;52.258;12.840;2023-07-13T12:49:24;2.60;;;1.65;;
7460;SDS011;6757;52.258;12.840;2023-07-13T12:54:30;3.47;;;1.92;;
7460;SDS011;6757;52.258;12.840;2023-07-13T12:56:57;1.90;;;1.52;;
7460;SDS011;6757;52.258;12.840;2023-07-13T12:59:29;4.22;;;1.70;;
7460;SDS011;6757;52.258;12.840;2023-07-13T13:02:01;5.78;;;2.08;;
7460;SDS011;6757;52.258;12.840;2023-07-13T13:04:31;3.13;;;1.85;;
7460;SDS011;6757;52.258;12.840;2023-07-13T13:07:02;2.47;;;1.63;;
7460;SDS011;6757;52.258;12.840;2023-07-13T13:09:35;1.80;;;1.63;;
7460;SDS011;6757;52.258;12.840;2023-07-13T13:12:02;3.13;;;1.55;;
7460;SDS011;6757;52.258;12.840;2023-07-13T13:14:30;3.38;;;1.50;;
7460;SDS011;6757;52.258;12.840;2023-07-13T13:16:57;3.22;;;2.05;;
7460;SDS011;6757;52.258;12.840;2023-07-13T13:19:27;2.97;;;1.55;;
7460;SDS011;6757;52.258;12.840;2023-07-13T13:21:56;2.47;;;1.80;;
7460;SDS011;6757;52.258;12.840;2023-07-13T13:24:24;3.95;;;1.90;;
7460;SDS011;6757;52.258;12.840;2023-07-13T13:26:55;3.67;;;1.65;;
7460;SDS011;6757;52.258;12.840;2023-07-13T13:29:23;4.03;;;1.55;;
7460;SDS011;6757;52.258;12.840;2023-07-13T13:31:51;2.05;;;1.60;;
7460;SDS011;6757;52.258;12.840;2023-07-13T13:34:19;2.38;;;1.60;;
7460;SDS011;6757;52.258;12.840;2023-07-13T13:36:48;3.80;;;1.70;;
7460;SDS011;6757;52.258;12.840;2023-07-13T13:39:20;1.73;;;1.50;;
7460;SDS011;6757;52.258;12.840;2023-07-13T13:41:50;1.30;;;1.30;;
7460;SDS011;6757;52.258;12.840;2023-07-13T13:44:21;3.25;;;1.23;;
7460;SDS011;6757;52.258;12.840;2023-07-13T13:46:49;1.88;;;1.45;;
7460;SDS011;6757;52.258;12.840;2023-07-13T13:49:19;1.42;;;1.23;;
7460;SDS011;6757;52.258;12.840;2023-07-13T13:51:49;1.35;;;1.25;;
7460;SDS011;6757;52.258;12.840;2023-07-13T13:54:16;2.30;;;1.48;;
7460;SDS011;6757;52.258;12.840;2023-07-13T13:56:46;1.30;;;1.20;;
7460;SDS011;6757;52.258;12.840;2023-07-13T13:59:15;1.92;;;1.70;;
7460;SDS011;6757;52.258;12.840;2023-07-13T14:01:43;1.70;;;1.20;;
7460;SDS011;6757;52.258;12.840;2023-07-13T14:04:14;2.00;;;1.30;;
7460;SDS011;6757;52.258;12.840;2023-07-13T14:06:45;1.95;;;1.10;;
7460;SDS011;6757;52.258;12.840;2023-07-13T14:09:13;1.45;;;1.20;;
7460;SDS011;6757;52.258;12.840;2023-07-13T14:11:42;1.73;;;1.50;;
7460;SDS011;6757;52.258;12.840;2023-07-13T14:14:12;2.33;;;1.50;;
7460;SDS011;6757;52.258;12.840;2023-07-13T14:16:44;2.03;;;1.35;;
7460;SDS011;6757;52.258;12.840;2023-07-13T14:19:11;3.30;;;1.15;;
7460;SDS011;6757;52.258;12.840;2023-07-13T14:21:40;1.98;;;1.00;;
7460;SDS011;6757;52.258;12.840;2023-07-13T14:24:07;1.35;;;1.10;;
7460;SDS011;6757;52.258;12.840;2023-07-13T14:26:36;2.03;;;1.13;;
7460;SDS011;6757;52.258;12.840;2023-07-13T14:29:08;3.42;;;1.33;;
7460;SDS011;6757;52.258;12.840;2023-07-13T14:31:39;3.83;;;1.38;;
7460;SDS011;6757;52.258;12.840;2023-07-13T14:34:09;1.58;;;1.08;;
7460;SDS011;6757;52.258;12.840;2023-07-13T14:36:39;3.60;;;1.15;;
7460;SDS011;6757;52.258;12.840;2023-07-13T14:39:11;2.58;;;1.40;;
7460;SDS011;6757;52.258;12.840;2023-07-13T14:41:41;3.78;;;1.30;;
7460;SDS011;6757;52.258;12.840;2023-07-13T14:44:11;1.45;;;1.35;;
7460;SDS011;6757;52.258;12.840;2023-07-13T14:49:06;4.15;;;1.48;;
7460;SDS011;6757;52.258;12.840;2023-07-13T14:51:43;1.20;;;1.20;;
7460;SDS011;6757;52.258;12.840;2023-07-13T14:54:09;2.83;;;1.52;;
7460;SDS011;6757;52.258;12.840;2023-07-13T14:56:37;3.35;;;1.55;;
7460;SDS011;6757;52.258;12.840;2023-07-13T14:59:04;4.72;;;1.55;;
7460;SDS011;6757;52.258;12.840;2023-07-13T15:01:32;1.30;;;1.30;;
7460;SDS011;6757;52.258;12.840;2023-07-13T15:04:00;2.33;;;1.58;;
7460;SDS011;6757;52.258;12.840;2023-07-13T15:06:29;1.25;;;1.15;;
7460;SDS011;6757;52.258;12.840;2023-07-13T15:08:56;1.98;;;1.27;;
7460;SDS011;6757;52.258;12.840;2023-07-13T15:11:24;2.35;;;1.60;;
7460;SDS011;6757;52.258;12.840;2023-07-13T15:13:51;2.25;;;1.30;;
7460;SDS011;6757;52.258;12.840;2023-07-13T15:16:18;1.20;;;1.10;;
7460;SDS011;6757;52.258;12.840;2023-07-13T15:18:49;2.30;;;1.40;;
7460;SDS011;6757;52.258;12.840;2023-07-13T15:21:19;2.78;;;1.42;;
7460;SDS011;6757;52.258;12.840;2023-07-13T15:23:51;4.15;;;1.52;;
7460;SDS011;6757;52.258;12.840;2023-07-13T15:26:18;4.00;;;1.40;;
7460;SDS011;6757;52.258;12.840;2023-07-13T15:28:46;3.80;;;1.67;;
7460;SDS011;6757;52.258;12.840;2023-07-13T15:31:20;1.83;;;1.48;;
7460;SDS011;6757;52.258;12.840;2023-07-13T15:33:49;1.70;;;1.38;;
7460;SDS011;6757;52.258;12.840;2023-07-13T15:36:18;2.13;;;1.50;;
7460;SDS011;6757;52.258;12.840;2023-07-13T15:38:46;2.90;;;1.58;;
7460;SDS011;6757;52.258;12.840;2023-07-13T15:41:17;1.52;;;1.42;;
7460;SDS011;6757;52.258;12.840;2023-07-13T15:43:47;2.47;;;1.90;;